Time;durP1;ratioP1;P1;durP2;ratioP2;P2;SDS_P1;SDS_P2;PMS_P1;PMS_P2;Temp;Humidity;BMP_temperature;BMP_pressure;BME280_temperature;BME280_humidity;BME280_pressure;Samples;Min_cycle;Max_cycle;Signal;HPM_P1;HPM_P2
2024/01/15 00:02:09;;;;;;;25.20;11.40;;;;;;;-0.97;70.22;97390.10;108614;1238;96677;-79
2024/01/15 00:04:40;;;;;;;24.20;12.90;;;;;;;-0.97;70.26;97383.30;108557;1236;96500;-80
2024/01/15 00:07:08;;;;;;;24.60;13.40;;;;;;;-0.96;70.04;97382.38;108620;1236;109968;-80
2024/01/15 00:09:35;;;;;;;23.30;12.40;;;;;;;-0.96;70.14;97375.23;108771;1236;96592;-78
2024/01/15 00:12:11;;;;;;;25.70;12.40;;;;;;;-0.95;70.07;97376.95;108681;1236;107433;-78
2024/01/15 00:14:40;;;;;;;25.40;12.50;;;;;;;-0.97;70.24;97376.30;108633;1236;96581;-80
2024/01/15 00:17:07;;;;;;;25.40;11.40;;;;;;;-0.97;70.13;97375.63;108622;1236;96590;-79
2024/01/15 00:19:33;;;;;;;19.90;11.60;;;;;;;-0.98;70.30;97369.75;108930;1236;97499;-78
2024/01/15 00:22:00;;;;;;;26.60;11.50;;;;;;;-0.98;70.29;97364.70;108672;1241;96593;-79
2024/01/15 00:24:27;;;;;;;23.80;11.00;;;;;;;-0.99;70.23;97364.05;108654;1238;96606;-79
2024/01/15 00:26:53;;;;;;;25.60;11.90;;;;;;;-0.99;70.16;97358.50;108560;1236;97816;-79
2024/01/15 00:29:20;;;;;;;22.40;12.20;;;;;;;-0.99;70.15;97353.13;108908;1236;109730;-79
2024/01/15 00:31:47;;;;;;;24.20;11.90;;;;;;;-1.01;70.06;97348.70;108722;1234;96580;-79
2024/01/15 00:34:13;;;;;;;23.70;11.70;;;;;;;-1.02;70.35;97347.55;108253;1236;97010;-79
2024/01/15 00:36:40;;;;;;;28.80;12.60;;;;;;;-1.02;69.84;97343.58;108440;1239;96578;-79
2024/01/15 00:39:06;;;;;;;;;;;;;;;-1.01;70.09;97342.48;108626;1247;96577;-80
2024/01/15 00:41:33;;;;;;;26.90;11.10;;;;;;;-1.02;70.31;97341.48;108631;1236;96596;-79
2024/01/15 00:44:00;;;;;;;22.60;10.20;;;;;;;-1.02;70.11;97340.27;108704;1233;96658;-79
2024/01/15 00:46:26;;;;;;;24.30;11.80;;;;;;;-1.03;69.96;97335.42;108778;1232;96590;-80
2024/01/15 00:48:53;;;;;;;22.60;10.20;;;;;;;-1.02;70.16;97335.35;108815;1232;96581;-79
2024/01/15 00:51:20;;;;;;;22.40;10.40;;;;;;;-1.01;70.21;97333.23;108788;1232;96604;-79
2024/01/15 00:53:46;;;;;;;23.20;10.80;;;;;;;-1.01;70.15;97330.92;108538;1236;106926;-81
2024/01/15 00:56:13;;;;;;;23.20;10.80;;;;;;;-1.00;70.00;97334.02;108504;1233;96580;-79
2024/01/15 00:58:39;;;;;;;21.40;10.10;;;;;;;-0.99;69.73;97333.65;108781;1244;96760;-79
2024/01/15 01:01:06;;;;;;;24.80;12.00;;;;;;;-0.98;70.15;97330.98;108812;1236;96584;-80
2024/01/15 01:03:33;;;;;;;21.50;11.30;;;;;;;-0.98;69.93;97325.21;108816;1236;107371;-79
2024/01/15 01:06:00;;;;;;;28.60;11.30;;;;;;;-0.98;69.95;97328.00;108584;1245;96575;-80
2024/01/15 01:08:29;;;;;;;;;;;;;;;-0.98;70.03;97332.17;108771;1236;96590;-79
2024/01/15 01:10:56;;;;;;;15.60;7.90;;;;;;;-0.99;70.09;97322.67;108689;1236;109214;-79
2024/01/15 01:13:23;;;;;;;22.20;10.50;;;;;;;-0.98;69.99;97321.77;108531;1246;96587;-79
2024/01/15 01:15:49;;;;;;;23.00;10.40;;;;;;;-0.98;69.96;97317.23;108727;1237;97067;-79
2024/01/15 01:18:16;;;;;;;23.70;10.60;;;;;;;-0.97;70.12;97313.68;108798;1245;96620;-79
2024/01/15 01:20:45;;;;;;;19.80;10.00;;;;;;;-0.95;70.01;97306.95;108828;1236;97806;-80
2024/01/15 01:23:12;;;;;;;23.90;11.00;;;;;;;-0.93;70.01;97301.84;108706;1247;96661;-79
2024/01/15 01:25:38;;;;;;;23.70;10.70;;;;;;;-0.94;69.97;97291.05;108519;1238;97764;-78
2024/01/15 01:28:05;;;;;;;;;;;;;;;-0.93;69.93;97280.43;108696;1236;96593;-79
2024/01/15 01:30:32;;;;;;;21.20;10.10;;;;;;;-0.94;69.75;97275.27;108588;1236;97253;-79
2024/01/15 01:33:03;;;;;;;19.70;9.90;;;;;;;-0.93;70.12;97268.42;108652;1236;108100;-79
2024/01/15 01:35:29;;;;;;;21.10;9.60;;;;;;;-0.95;69.90;97264.69;111563;1232;97422;-80
2024/01/15 01:37:56;;;;;;;22.40;9.70;;;;;;;-0.90;69.83;97268.44;111457;1232;94624;-78
2024/01/15 01:40:22;;;;;;;20.90;9.60;;;;;;;-0.91;69.83;97268.79;111512;1232;94240;-78
2024/01/15 01:42:49;;;;;;;20.80;9.60;;;;;;;-0.91;69.83;97268.27;111446;1232;94246;-77
2024/01/15 01:45:18;;;;;;;;;;;;;;;-0.90;69.66;97266.30;111540;1232;94684;-78
2024/01/15 01:47:46;;;;;;;18.70;8.30;;;;;;;-0.90;69.80;97265.45;111449;1232;107123;-78
2024/01/15 01:50:15;;;;;;;18.10;8.80;;;;;;;-0.89;69.78;97259.65;111490;1232;94261;-77
2024/01/15 01:52:42;;;;;;;19.50;9.80;;;;;;;-0.87;69.74;97255.54;111491;1232;94213;-79
2024/01/15 01:55:10;;;;;;;17.60;8.60;;;;;;;-0.85;69.49;97251.98;111468;1232;94415;-78
2024/01/15 01:57:36;;;;;;;17.60;9.70;;;;;;;-0.83;69.61;97250.11;111514;1232;94231;-78
2024/01/15 02:00:14;;;;;;;17.70;7.80;;;;;;;-0.81;69.54;97248.10;111494;1232;94385;-78
2024/01/15 02:02:41;;;;;;;19.00;9.30;;;;;;;-0.79;69.57;97242.95;111345;1232;94599;-78
2024/01/15 02:05:08;;;;;;;17.00;8.50;;;;;;;-0.78;69.49;97241.48;111471;1233;94210;-78
2024/01/15 02:07:36;;;;;;;18.20;8.40;;;;;;;-0.79;69.48;97237.67;111356;1232;94652;-77
2024/01/15 02:10:02;;;;;;;14.40;7.90;;;;;;;-0.78;69.52;97235.02;111517;1232;94227;-78
2024/01/15 02:12:32;;;;;;;13.30;7.40;;;;;;;-0.78;69.40;97237.45;111502;1233;107217;-78
2024/01/15 02:14:58;;;;;;;18.90;8.90;;;;;;;-0.77;69.49;97235.15;111392;1232;94591;-78
2024/01/15 02:17:26;;;;;;;18.10;8.50;;;;;;;-0.77;69.37;97234.25;111509;1233;94283;-78
2024/01/15 02:19:53;;;;;;;;;;;;;;;-0.76;69.41;97238.06;111480;1232;94615;-77
2024/01/15 02:22:19;;;;;;;17.60;8.90;;;;;;;-0.79;69.48;97229.84;111485;1232;94572;-78
2024/01/15 02:24:46;;;;;;;16.70;8.50;;;;;;;-0.80;69.50;97229.20;111545;1232;94392;-78
2024/01/15 02:27:15;;;;;;;18.40;8.70;;;;;;;-0.80;69.55;97226.80;111469;1232;94183;-78
2024/01/15 02:29:42;;;;;;;;;;;;;;;-0.81;69.54;97220.75;111568;1232;94145;-78
2024/01/15 02:32:09;;;;;;;16.00;8.20;;;;;;;-0.82;69.38;97217.33;111482;1232;94901;-78
2024/01/15 02:34:35;;;;;;;14.20;7.40;;;;;;;-0.83;69.39;97217.25;111571;1232;94436;-78
2024/01/15 02:37:02;;;;;;;;;;;;;;;-0.84;69.47;97214.14;111564;1232;94216;-79
2024/01/15 02:39:30;;;;;;;17.40;7.20;;;;;;;-0.85;69.37;97208.30;111551;1232;94187;-78
2024/01/15 02:41:57;;;;;;;17.60;7.30;;;;;;;-0.85;69.62;97198.92;111471;1234;94479;-80
2024/01/15 02:44:24;;;;;;;17.10;9.50;;;;;;;-0.86;69.34;97197.19;111576;1232;94206;-78
2024/01/15 02:46:52;;;;;;;22.50;9.90;;;;;;;-0.86;69.31;97192.15;111496;1233;94492;-78
2024/01/15 02:49:18;;;;;;;15.50;7.80;;;;;;;-0.86;69.51;97189.04;111481;1234;94178;-78
2024/01/15 02:51:47;;;;;;;20.30;10.00;;;;;;;-0.87;69.53;97179.52;111492;1232;94640;-78
2024/01/15 02:54:13;;;;;;;;;;;;;;;-0.88;69.50;97181.14;111550;1232;94194;-78
2024/01/15 02:56:40;;;;;;;19.70;8.70;;;;;;;-0.90;69.62;97176.71;111494;1232;94324;-77
2024/01/15 02:59:06;;;;;;;16.90;8.60;;;;;;;-0.89;69.47;97165.52;111411;1232;94586;-78
2024/01/15 03:01:33;;;;;;;18.50;9.10;;;;;;;-0.89;69.46;97166.22;111518;1232;94532;-77
2024/01/15 03:03:59;;;;;;;17.80;9.20;;;;;;;-0.90;69.47;97167.98;111357;1232;109758;-78
2024/01/15 03:06:26;;;;;;;;;;;;;;;-0.89;69.57;97171.98;111415;1232;94641;-78
2024/01/15 03:08:52;;;;;;;17.10;7.50;;;;;;;-0.90;69.44;97172.19;111383;1233;94627;-79
2024/01/15 03:11:19;;;;;;;17.80;8.80;;;;;;;-0.89;69.26;97165.01;111426;1236;94307;-79
2024/01/15 03:13:45;;;;;;;;;;;;;;;-0.87;69.32;97162.66;111571;1233;94142;-79
2024/01/15 03:16:12;;;;;;;16.60;7.00;;;;;;;-0.87;69.13;97157.25;111520;1232;94523;-79
2024/01/15 03:18:38;;;;;;;18.20;8.60;;;;;;;-0.87;69.31;97151.30;111477;1233;94498;-78
2024/01/15 03:21:05;;;;;;;;;;;;;;;-0.87;69.26;97148.89;111496;1232;94209;-79
2024/01/15 03:23:32;;;;;;;17.00;8.60;;;;;;;-0.88;69.28;97147.22;111495;1232;94276;-79
2024/01/15 03:25:58;;;;;;;17.50;8.60;;;;;;;-0.87;69.18;97146.80;111534;1232;94581;-79
2024/01/15 03:28:25;;;;;;;17.80;9.10;;;;;;;-0.85;69.26;97153.15;111477;1232;107666;-78
2024/01/15 03:30:52;;;;;;;14.10;7.00;;;;;;;-0.85;69.12;97146.70;111507;1232;94551;-80
2024/01/15 03:33:21;;;;;;;19.70;9.40;;;;;;;-0.85;69.26;97143.05;111388;1232;94199;-79
2024/01/15 03:35:47;;;;;;;17.80;8.40;;;;;;;-0.83;69.10;97142.75;111430;1232;94701;-79
2024/01/15 03:38:14;;;;;;;16.60;8.20;;;;;;;-0.82;69.11;97144.94;111451;1232;94619;-79
2024/01/15 03:40:40;;;;;;;15.20;7.70;;;;;;;-0.82;68.86;97140.91;111395;1232;94392;-79
2024/01/15 03:43:07;;;;;;;15.80;7.90;;;;;;;-0.81;68.87;97137.92;111460;1236;94453;-79
2024/01/15 03:45:34;;;;;;;15.00;7.60;;;;;;;-0.81;69.21;97139.16;111417;1232;108234;-79
2024/01/15 03:48:00;;;;;;;13.50;7.50;;;;;;;-0.81;68.92;97139.84;111416;1236;94517;-79
2024/01/15 03:50:27;;;;;;;14.70;7.30;;;;;;;-0.80;68.94;97139.09;111413;1232;94483;-79
2024/01/15 03:52:54;;;;;;;;;;;;;;;-0.81;68.75;97136.66;111356;1232;94568;-79
2024/01/15 03:55:20;;;;;;;15.30;8.10;;;;;;;-0.80;68.99;97127.45;111515;1232;94521;-79
2024/01/15 03:57:47;;;;;;;14.00;7.20;;;;;;;-0.81;69.01;97129.71;111419;1236;95107;-79
2024/01/15 04:00:17;;;;;;;14.20;7.50;;;;;;;-0.79;68.99;97128.42;111264;1232;94485;-79
2024/01/15 04:02:45;;;;;;;18.20;8.10;;;;;;;-0.79;68.91;97130.13;111363;1232;94214;-76
2024/01/15 04:05:11;;;;;;;12.70;7.50;;;;;;;-0.78;68.69;97128.68;111420;1232;94466;-76
2024/01/15 04:07:38;;;;;;;17.60;8.70;;;;;;;-0.76;68.65;97120.41;111358;1232;94559;-76
2024/01/15 04:10:12;;;;;;;17.70;8.30;;;;;;;-0.76;68.70;97117.92;111426;1232;94202;-78
2024/01/15 04:12:38;;;;;;;14.70;7.50;;;;;;;-0.74;68.74;97114.36;111444;1232;108149;-79
2024/01/15 04:15:05;;;;;;;15.60;8.30;;;;;;;-0.75;68.69;97109.71;111509;1232;94170;-77
2024/01/15 04:17:32;;;;;;;14.70;7.80;;;;;;;-0.75;68.42;97111.28;111415;1236;94506;-80
2024/01/15 04:19:58;;;;;;;14.30;8.00;;;;;;;-0.75;68.68;97099.98;111468;1232;94577;-74
2024/01/15 04:22:26;;;;;;;15.70;7.80;;;;;;;-0.75;68.74;97099.98;111463;1232;94204;-74
2024/01/15 04:24:53;;;;;;;12.20;6.60;;;;;;;-0.74;68.68;97095.23;111406;1232;94565;-74
2024/01/15 04:27:19;;;;;;;15.90;7.50;;;;;;;-0.73;68.52;97099.86;111512;1232;94211;-74
2024/01/15 04:29:46;;;;;;;14.90;7.30;;;;;;;-0.72;68.40;97093.23;111427;1236;94266;-74
2024/01/15 04:32:12;;;;;;;15.00;7.40;;;;;;;-0.73;68.36;97090.27;111440;1232;94195;-74
2024/01/15 04:34:38;;;;;;;16.30;7.50;;;;;;;-0.72;68.25;97091.29;111466;1232;94568;-74
2024/01/15 04:37:05;;;;;;;;;;;;;;;-0.71;68.64;97090.73;111426;1232;94182;-74
2024/01/15 04:39:31;;;;;;;13.90;5.60;;;;;;;-0.73;68.21;97085.25;111425;1232;94676;-74
2024/01/15 04:41:58;;;;;;;12.00;6.20;;;;;;;-0.74;68.10;97086.54;111406;1232;94909;-74
2024/01/15 04:44:24;;;;;;;14.30;6.90;;;;;;;-0.77;68.07;97081.15;111439;1232;94472;-74
2024/01/15 04:46:51;;;;;;;16.10;7.40;;;;;;;-0.78;68.31;97086.27;111400;1232;94674;-74
2024/01/15 04:49:17;;;;;;;11.60;6.40;;;;;;;-0.78;68.51;97080.66;111471;1232;94312;-74
2024/01/15 04:51:44;;;;;;;14.70;7.30;;;;;;;-0.80;68.29;97083.52;111495;1236;94199;-74
2024/01/15 04:54:11;;;;;;;15.90;8.10;;;;;;;-0.80;68.58;97075.07;111423;1232;94141;-74
2024/01/15 04:56:38;;;;;;;15.70;7.40;;;;;;;-0.82;68.48;97074.09;111482;1232;94577;-75
2024/01/15 04:59:04;;;;;;;;;;;;;;;-0.83;68.55;97066.14;111500;1232;94393;-75
2024/01/15 05:01:32;;;;;;;12.60;6.80;;;;;;;-0.85;68.53;97067.69;111476;1232;95197;-74
2024/01/15 05:03:59;;;;;;;13.40;6.90;;;;;;;-0.86;68.63;97072.79;111448;1234;108354;-75
2024/01/15 05:06:26;;;;;;;14.40;7.60;;;;;;;-0.87;68.75;97076.30;111451;1232;94191;-75
2024/01/15 05:08:53;;;;;;;10.20;5.50;;;;;;;-0.88;68.66;97074.63;111502;1232;94176;-75
2024/01/15 05:11:20;;;;;;;12.00;6.20;;;;;;;-0.88;68.50;97079.00;111502;1232;94136;-75
2024/01/15 05:13:46;;;;;;;11.20;5.60;;;;;;;-0.89;68.45;97083.18;111455;1233;94507;-75
2024/01/15 05:16:12;;;;;;;15.20;6.60;;;;;;;-0.90;68.49;97076.84;111540;1236;94461;-75
2024/01/15 05:18:39;;;;;;;12.90;6.50;;;;;;;-0.90;68.64;97073.01;111530;1232;94145;-75
2024/01/15 05:21:05;;;;;;;12.00;6.70;;;;;;;-0.91;68.50;97073.91;111474;1236;94199;-75
2024/01/15 05:23:32;;;;;;;12.20;5.60;;;;;;;-0.91;68.66;97071.63;111452;1232;94502;-75
2024/01/15 05:25:58;;;;;;;12.40;7.40;;;;;;;-0.90;68.55;97073.33;111462;1232;94207;-75
2024/01/15 05:28:25;;;;;;;15.10;6.80;;;;;;;-0.90;68.50;97070.92;111473;1232;94594;-75
2024/01/15 05:30:52;;;;;;;12.80;7.30;;;;;;;-0.92;68.46;97065.98;111484;1232;109352;-73
2024/01/15 05:33:19;;;;;;;14.90;7.90;;;;;;;-0.92;68.61;97066.84;111431;1232;94439;-74
2024/01/15 05:35:45;;;;;;;15.70;7.30;;;;;;;-0.92;68.53;97062.80;111468;1232;94615;-72
2024/01/15 05:38:12;;;;;;;15.00;8.00;;;;;;;-0.91;68.52;97064.33;111370;1232;94284;-74
2024/01/15 05:40:38;;;;;;;12.30;6.90;;;;;;;-0.89;68.83;97059.91;111506;1232;94624;-74
2024/01/15 05:43:05;;;;;;;16.00;7.60;;;;;;;-0.87;68.54;97059.97;111515;1232;94998;-72
2024/01/15 05:45:31;;;;;;;12.80;6.40;;;;;;;-0.87;68.48;97058.40;111478;1232;108113;-73
2024/01/15 05:47:58;;;;;;;16.60;7.40;;;;;;;-0.87;68.71;97055.10;111450;1232;94664;-73
2024/01/15 05:50:25;;;;;;;13.10;6.00;;;;;;;-0.87;68.31;97055.96;111478;1232;94481;-74
2024/01/15 05:52:51;;;;;;;11.10;7.00;;;;;;;-0.86;68.44;97049.14;111398;1232;94177;-73
2024/01/15 05:55:22;;;;;;;15.10;6.90;;;;;;;-0.90;68.51;97044.27;111414;1237;95965;-73
2024/01/15 05:57:49;;;;;;;11.00;6.50;;;;;;;-0.93;68.47;97038.70;111449;1232;94604;-76
2024/01/15 06:00:19;;;;;;;17.00;8.10;;;;;;;-0.94;68.53;97039.30;111421;1232;94131;-78
2024/01/15 06:02:46;;;;;;;17.80;7.00;;;;;;;-0.95;68.35;97032.23;111465;1232;94229;-77
2024/01/15 06:05:12;;;;;;;15.20;8.00;;;;;;;-0.97;68.57;97029.39;111438;1232;94565;-77
2024/01/15 06:07:39;;;;;;;15.80;7.20;;;;;;;-0.99;68.59;97026.71;111345;1232;94610;-75
2024/01/15 06:10:08;;;;;;;14.50;6.90;;;;;;;-1.00;68.55;97023.52;111426;1237;94408;-74
2024/01/15 06:12:35;;;;;;;15.50;7.60;;;;;;;-1.01;68.69;97019.54;111454;1232;94254;-73
2024/01/15 06:15:02;;;;;;;12.40;5.80;;;;;;;-1.01;68.54;97018.63;111423;1232;94414;-71
2024/01/15 06:17:37;;;;;;;12.80;7.00;;;;;;;-0.99;68.68;97018.20;111512;1232;94221;-77
2024/01/15 06:20:06;;;;;;;14.50;7.50;;;;;;;-0.94;68.60;97007.27;111292;1232;107900;-77
2024/01/15 06:22:39;;;;;;;17.50;7.80;;;;;;;-0.91;68.52;97009.34;111205;1232;94183;-77
2024/01/15 06:25:08;;;;;;;14.30;7.40;;;;;;;-0.89;68.41;97010.98;111399;1232;94717;-77
2024/01/15 06:27:47;;;;;;;17.10;7.70;;;;;;;-0.87;68.66;97010.40;111261;1232;109411;-77
2024/01/15 06:30:56;;;;;;;16.70;7.80;;;;;;;-0.86;68.63;97012.39;111188;1232;95557;-79
2024/01/15 06:33:44;;;;;;;11.70;6.00;;;;;;;-0.86;68.46;97008.95;111214;1232;107820;-78
2024/01/15 06:36:14;;;;;;;15.40;7.20;;;;;;;-0.88;68.38;97004.52;111324;1232;94150;-76
2024/01/15 06:49:08;;;;;;;16.00;7.40;;;;;;;-0.92;68.65;97002.15;110843;1238;96339;-76
2024/01/15 06:52:35;;;;;;;12.80;6.90;;;;;;;-0.91;68.60;97001.52;110693;1238;107952;-77
2024/01/15 06:56:23;;;;;;;14.10;7.60;;;;;;;-0.91;68.61;97002.05;110507;1243;94715;-78
2024/01/15 07:04:35;;;;;;;16.80;7.90;;;;;;;-0.91;68.49;97005.16;108915;1257;111507;-79
2024/01/15 07:11:35;;;;;;;15.00;7.80;;;;;;;-0.90;68.40;97004.94;109011;1254;107481;-76
2024/01/15 07:14:28;;;;;;;18.00;7.90;;;;;;;-0.89;68.39;97002.27;109517;1248;94417;-79
2024/01/15 07:16:59;;;;;;;17.20;8.10;;;;;;;-0.87;68.57;97006.00;110431;1243;94659;-77
2024/01/15 07:19:29;;;;;;;17.80;8.20;;;;;;;-0.87;68.37;96995.41;110350;1239;111251;-76
2024/01/15 07:21:56;;;;;;;16.80;8.20;;;;;;;-0.85;68.61;96997.72;110636;1244;94342;-78
2024/01/15 07:24:26;;;;;;;17.80;8.70;;;;;;;-0.85;68.50;96994.79;111257;1232;107502;-78
2024/01/15 07:43:51;;;;;;;;;;;;;;;-0.34;67.86;97002.14;103099;1286;647554;-77
2024/01/15 07:46:19;;;;;;;16.40;9.20;;;;;;;-0.38;68.17;96997.33;104732;1264;120532;-79
2024/01/15 07:48:47;;;;;;;21.00;10.60;;;;;;;-0.40;67.84;96992.95;104771;1269;94658;-77
2024/01/15 07:51:15;;;;;;;19.20;9.50;;;;;;;-0.46;67.78;96992.94;105011;1266;108163;-78
2024/01/15 07:53:43;;;;;;;18.80;9.10;;;;;;;-0.51;67.96;96999.14;104753;1270;95518;-79
2024/01/15 07:56:11;;;;;;;17.70;8.20;;;;;;;-0.51;68.12;97001.27;104966;1269;108793;-77
2024/01/15 07:58:39;;;;;;;16.40;8.00;;;;;;;-0.53;67.99;96999.29;104435;1270;94310;-77
2024/01/15 08:01:07;;;;;;;18.60;9.20;;;;;;;-0.54;68.18;96999.00;104685;1268;94827;-76
2024/01/15 08:03:35;;;;;;;21.80;10.30;;;;;;;-0.54;67.96;96994.30;104865;1269;107176;-77
2024/01/15 08:06:05;;;;;;;19.50;10.20;;;;;;;-0.55;67.98;96994.55;104922;1267;94992;-77
2024/01/15 08:08:32;;;;;;;17.30;9.20;;;;;;;-0.58;67.83;97000.78;104979;1270;107825;-77
2024/01/15 08:11:00;;;;;;;20.50;9.80;;;;;;;-0.56;68.03;97003.48;104809;1267;95349;-79
2024/01/15 08:13:28;;;;;;;21.40;9.20;;;;;;;-0.56;67.86;97005.23;104695;1266;95291;-82
2024/01/15 08:15:59;;;;;;;19.10;9.90;;;;;;;-0.55;68.04;97002.52;105051;1264;106920;-83
2024/01/15 08:28:30;;;;;;;14.60;7.40;;;;;;;-0.46;67.68;97000.27;105934;1269;95160;-83
2024/01/15 08:31:20;;;;;;;13.80;6.60;;;;;;;-0.44;67.73;97003.27;105592;1273;95282;-81
2024/01/15 08:38:25;;;;;;;15.20;7.20;;;;;;;-0.45;67.56;97004.55;104476;1273;95577;-80
2024/01/15 08:41:17;;;;;;;20.00;8.30;;;;;;;-0.38;67.73;97006.56;104521;1267;109033;-79
2024/01/15 08:43:45;;;;;;;19.80;9.50;;;;;;;-0.35;67.27;97007.59;104767;1267;95335;-76
2024/01/15 08:46:44;;;;;;;16.00;8.60;;;;;;;-0.32;67.64;97014.56;104700;1263;95315;-79
2024/01/15 08:50:15;;;;;;;14.60;7.10;;;;;;;-0.30;67.47;97004.69;104854;1265;109225;-79
2024/01/15 08:53:15;;;;;;;18.90;9.30;;;;;;;-0.19;67.58;97009.10;102532;1291;636082;-77
2024/01/15 08:56:15;;;;;;;15.00;7.70;;;;;;;-0.18;67.51;97010.21;104174;1284;96650;-76
2024/01/15 08:58:59;;;;;;;21.20;9.50;;;;;;;-0.15;67.56;97004.14;104931;1274;94233;-77
2024/01/15 09:02:47;;;;;;;20.40;9.30;;;;;;;-0.08;67.33;97001.63;105002;1263;108190;-83
2024/01/15 09:19:07;;;;;;;;;;;;;;;0.55;66.85;97001.23;103421;1286;648567;-81
2024/01/15 09:21:55;;;;;;;19.20;9.30;;;;;;;0.55;66.91;97006.66;104909;1263;159922;-80
2024/01/15 09:25:04;;;;;;;22.80;11.10;;;;;;;0.59;67.20;97003.81;105215;1259;94372;-77
2024/01/15 09:27:39;;;;;;;23.20;10.50;;;;;;;0.58;66.39;97003.33;105082;1260;107888;-74
2024/01/15 09:30:32;;;;;;;19.50;10.20;;;;;;;0.61;66.99;97002.98;104995;1259;95516;-79
2024/01/15 09:46:28;;;;;;;16.80;7.60;;;;;;;0.71;66.60;96993.61;104874;1275;107008;-80
2024/01/15 09:54:42;;;;;;;;;;;;;;;;;;;;;
2024/01/15 11:19:06;;;;;;;37.40;14.80;;;;;;;2.04;66.26;96978.23;98371;1259;94375;-76
2024/01/15 11:22:34;;;;;;;42.90;20.80;;;;;;;2.08;66.53;96983.23;108511;1233;94270;-81
2024/01/15 11:26:04;;;;;;;18.20;8.50;;;;;;;2.03;66.47;96986.19;108258;1236;107498;-80
2024/01/15 11:38:41;;;;;;;12.60;6.20;;;;;;;1.80;66.62;96973.31;107099;1248;108004;-79
2024/01/15 11:41:26;;;;;;;13.00;7.20;;;;;;;1.85;66.57;96983.07;108306;1234;95323;-80
2024/01/15 11:45:04;;;;;;;13.90;7.10;;;;;;;1.84;66.38;96982.80;108553;1243;109424;-80
2024/01/15 11:47:59;;;;;;;12.40;7.00;;;;;;;1.82;66.32;96981.77;108184;1247;94269;-78
2024/01/15 11:55:00;;;;;;;13.20;6.10;;;;;;;1.74;65.70;96984.55;107635;1247;109783;-78
2024/01/15 12:01:36;;;;;;;10.20;5.50;;;;;;;1.63;65.66;96982.52;107392;1253;107430;-78
